Time;durP1;ratioP1;P1;durP2;ratioP2;P2;SDS_P1;SDS_P2;PMS_P1;PMS_P2;Temp;Humidity;BMP_temperature;BMP_pressure;BME280_temperature;BME280_humidity;BME280_pressure;Samples;Min_cycle;Max_cycle;Signal;HPM_P1;HPM_P2
2023/03/27 07:11:16;;;;;;;6.13;3.03;;;;;;;-145.79;83.23;79268.44;5386534;27;20391;-78
2023/03/27 07:13:47;;;;;;;7.30;2.85;;;;;;;-145.79;80.54;79268.44;5386170;27;20035;-77
2023/03/27 07:16:19;;;;;;;5.72;2.75;;;;;;;-145.79;78.83;79291.75;5386931;27;20026;-78
2023/03/27 07:18:50;;;;;;;3.03;2.72;;;;;;;-145.79;79.23;79300.25;5349551;27;20023;-78
2023/03/27 07:21:22;;;;;;;4.43;2.80;;;;;;;-145.79;79.07;79304.47;5342448;28;20023;-78
2023/03/27 07:23:53;;;;;;;5.00;2.67;;;;;;;-145.79;78.99;79319.31;5343430;28;20110;-79
2023/03/27 07:26:24;;;;;;;4.47;3.28;;;;;;;-145.79;78.62;79289.63;5359661;27;20019;-79
2023/03/27 07:28:56;;;;;;;5.22;2.75;;;;;;;-145.79;78.27;79279.03;5364552;27;20042;-79
2023/03/27 07:31:28;;;;;;;3.08;2.65;;;;;;;-145.79;77.87;79264.19;5366100;27;20088;-78
2023/03/27 07:33:59;;;;;;;3.90;2.85;;;;;;;-145.79;77.17;79257.81;5362156;27;20198;-76
2023/03/27 07:36:33;;;;;;;7.32;3.00;;;;;;;-145.79;76.66;79262.06;5366279;27;20030;-78
2023/03/27 07:39:05;;;;;;;27.27;19.60;;;;;;;-145.79;75.46;79247.22;5383811;27;20027;-79
2023/03/27 07:41:36;;;;;;;5.60;3.55;;;;;;;-145.79;75.17;79217.53;5359862;27;20023;-78
2023/03/27 07:44:08;;;;;;;4.00;2.90;;;;;;;-145.79;73.26;79226.03;5343033;28;20027;-78
2023/03/27 07:46:40;;;;;;;4.65;2.78;;;;;;;-145.79;73.40;79209.06;5343069;27;20035;-78
2023/03/27 07:49:12;;;;;;;7.00;2.70;;;;;;;-145.79;72.13;79219.66;5342023;27;20019;-78
2023/03/27 07:51:44;;;;;;;4.15;2.42;;;;;;;-145.79;71.63;79211.19;5344269;27;20024;-77
2023/03/27 07:54:19;;;;;;;4.75;2.55;;;;;;;-145.79;70.79;79215.41;5343810;28;20024;-77
2023/03/27 07:56:53;;;;;;;3.05;2.47;;;;;;;-145.79;70.76;79206.94;5343412;28;20027;-78
2023/03/27 07:59:25;;;;;;;6.95;2.35;;;;;;;-145.79;70.36;79217.53;5350542;27;20030;-78
2023/03/27 08:01:56;;;;;;;4.30;2.50;;;;;;;-145.79;70.41;79187.84;5364825;27;20373;-78
2023/03/27 08:04:28;;;;;;;7.32;2.60;;;;;;;-145.79;69.31;79196.34;5365000;27;20546;-77
2023/03/27 08:06:59;;;;;;;4.93;2.28;;;;;;;-145.79;68.32;79192.09;5365363;27;20031;-78
2023/03/27 08:09:30;;;;;;;6.72;2.42;;;;;;;-145.79;68.19;79177.25;5364413;27;20039;-78
2023/03/27 08:12:06;;;;;;;7.32;3.08;;;;;;;-145.79;67.12;79183.59;5350738;27;20061;-78
2023/03/27 08:14:38;;;;;;;7.40;2.45;;;;;;;-145.79;66.74;79183.59;5351980;27;20048;-78
2023/03/27 08:17:09;;;;;;;7.50;2.83;;;;;;;-145.79;65.85;79168.75;5350377;27;20487;-78
2023/03/27 08:19:40;;;;;;;11.20;2.85;;;;;;;-145.79;66.38;79158.16;5351045;27;20027;-74
2023/03/27 08:22:12;;;;;;;9.05;2.88;;;;;;;-145.79;66.79;79170.88;5351835;27;20107;-77
2023/03/27 08:24:43;;;;;;;4.60;2.42;;;;;;;-145.79;66.45;79166.63;5350987;27;20015;-76
2023/03/27 08:27:15;;;;;;;13.30;7.15;;;;;;;-145.79;67.44;79170.88;5332417;27;20030;-77
2023/03/27 08:29:46;;;;;;;7.05;2.30;;;;;;;-145.79;68.42;79187.84;5333294;28;20019;-77
2023/03/27 08:32:17;;;;;;;3.85;1.75;;;;;;;-145.79;69.08;79194.22;5330198;28;20145;-78
2023/03/27 08:34:55;;;;;;;4.80;1.75;;;;;;;-145.79;67.06;79206.94;5342900;27;20011;-77
2023/03/27 08:37:26;;;;;;;3.63;1.42;;;;;;;-145.79;66.83;79204.81;5349222;27;20035;-79
2023/03/27 08:39:58;;;;;;;5.03;1.73;;;;;;;-145.79;65.09;79198.44;5348563;27;20081;-79
2023/03/27 08:42:52;;;;;;;3.53;1.40;;;;;;;-145.79;65.40;79194.22;5348504;27;20023;-79
2023/03/27 09:19:10;;;;;;;4.72;1.73;;;;;;;-145.79;59.81;79111.50;5389295;27;20138;-83
2023/03/27 09:21:48;;;;;;;5.18;1.52;;;;;;;-145.79;59.30;79103.03;5391905;27;20578;-87
2023/03/27 09:24:33;;;;;;;3.72;1.70;;;;;;;-145.79;58.40;79094.53;5388713;27;20023;-85
2023/03/27 09:27:17;;;;;;;3.85;1.83;;;;;;;-145.79;62.47;79147.56;5368255;27;20083;-87
2023/03/27 09:30:09;;;;;;;2.70;1.40;;;;;;;-145.79;69.90;79234.50;5369805;27;20088;-87
2023/03/27 09:32:45;;;;;;;3.22;1.50;;;;;;;-145.79;72.46;79298.13;5350031;27;20031;-85
2023/03/27 09:35:22;;;;;;;1.88;1.25;;;;;;;-145.79;73.80;79357.50;5366628;27;20092;-85
2023/03/27 09:38:08;;;;;;;2.88;1.40;;;;;;;-145.79;74.98;79406.28;5368303;27;20026;-85
2023/03/27 09:40:55;;;;;;;2.33;1.20;;;;;;;-145.79;75.31;79438.09;5367397;27;20031;-84
2023/03/27 09:43:59;;;;;;;3.17;1.45;;;;;;;-145.79;74.85;79429.59;5360787;22;20097;-85
2023/03/27 09:46:34;;;;;;;4.22;1.45;;;;;;;-145.79;74.16;79425.34;5226403;28;20392;-84
2023/03/27 09:49:17;;;;;;;3.42;1.65;;;;;;;-145.79;74.79;79402.03;5259221;28;20039;-85
2023/03/27 09:51:52;;;;;;;3.30;1.52;;;;;;;-145.79;74.72;79374.47;5259239;28;20041;-84
2023/03/27 09:54:52;;;;;;;1.30;1.20;;;;;;;-145.79;74.79;79355.38;5262497;28;20053;-84
2023/03/27 09:57:31;;;;;;;2.42;1.30;;;;;;;-145.79;73.77;79340.53;5261786;28;20029;-86
2023/03/27 10:00:14;;;;;;;3.33;1.80;;;;;;;-145.79;73.81;79310.84;5259908;28;20032;-86
2023/03/27 10:05:26;;;;;;;2.45;1.20;;;;;;;-145.79;71.31;79279.03;5275364;23;20491;-86
2023/03/27 10:07:59;;;;;;;3.13;1.90;;;;;;;-145.79;69.06;79270.56;5280385;28;20098;-85
2023/03/27 10:10:36;;;;;;;4.53;1.40;;;;;;;-145.79;68.89;79285.41;5279674;28;20032;-85
2023/03/27 10:13:12;;;;;;;2.75;1.48;;;;;;;-145.79;67.54;79279.03;5280275;28;20066;-84
2023/03/27 10:15:44;;;;;;;3.13;1.70;;;;;;;-145.79;67.24;79274.78;5268029;28;20025;-84
2023/03/27 10:18:28;;;;;;;3.15;1.52;;;;;;;-145.79;68.64;79249.34;5252571;28;20022;-86
2023/03/27 10:21:08;;;;;;;7.88;2.97;;;;;;;-145.79;67.37;79245.09;5243784;28;20094;-85
2023/03/27 10:23:51;;;;;;;3.30;1.67;;;;;;;-145.79;72.67;79173.00;5263531;28;20167;-80
2023/03/27 10:26:26;;;;;;;5.82;1.70;;;;;;;-145.79;71.97;79149.69;5277641;28;20058;-81
2023/03/27 10:29:15;;;;;;;7.57;2.58;;;;;;;-145.79;66.77;79160.28;5274109;28;20029;-80
2023/03/27 10:31:51;;;;;;;4.43;2.08;;;;;;;-145.79;67.32;79153.91;5255345;28;20111;-84
2023/03/27 10:34:27;;;;;;;3.95;2.03;;;;;;;-145.79;68.17;79147.56;5243987;28;20032;-89
2023/03/27 10:37:03;;;;;;;;;;;;;;;-145.79;66.86;79141.19;5267121;28;20107;-86
2023/03/27 10:39:37;;;;;;;3.20;1.40;;;;;;;-145.79;66.17;79143.31;5266235;28;19913;-87
2023/03/27 10:42:12;;;;;;;5.00;1.98;;;;;;;-145.79;66.79;79115.75;5269565;28;20063;-87
2023/03/27 10:44:48;;;;;;;5.17;1.80;;;;;;;-145.79;64.63;79098.78;5266446;28;20060;-88
2023/03/27 10:47:37;;;;;;;;;;;;;;;-145.79;63.87;79075.47;5267759;28;20557;-87
2023/03/27 10:50:34;;;;;;;4.00;1.50;;;;;;;-145.79;61.13;79092.41;5246999;28;19959;-82
2023/03/27 10:53:23;;;;;;;4.18;1.45;;;;;;;-145.79;59.68;79086.06;5266824;28;20022;-82
2023/03/27 10:56:18;;;;;;;3.50;1.40;;;;;;;-145.79;60.58;79060.63;5272137;28;20155;-80
2023/03/27 10:59:16;;;;;;;3.78;1.98;;;;;;;-145.79;58.74;79054.25;5265167;28;20455;-80
2023/03/27 11:01:57;;;;;;;4.68;2.20;;;;;;;-145.79;57.89;79073.34;5258082;28;20116;-80
2023/03/27 11:05:04;;;;;;;2.72;1.52;;;;;;;-145.79;63.64;79130.59;5264554;28;20041;-80
2023/03/27 11:07:48;;;;;;;6.63;2.08;;;;;;;-145.79;71.48;79270.56;5223099;28;20488;-81
2023/03/27 11:10:44;;;;;;;4.80;1.77;;;;;;;-145.79;73.87;79270.56;5222934;28;20625;-79
2023/03/27 11:13:45;;;;;;;2.20;1.60;;;;;;;-145.79;74.49;79283.28;5241920;28;20137;-81
2023/03/27 11:16:26;;;;;;;3.38;1.60;;;;;;;-145.79;75.78;79251.47;5234769;28;20124;-81
2023/03/27 11:19:09;;;;;;;38.17;33.97;;;;;;;-145.79;76.19;79259.94;5243359;28;20075;-82
2023/03/27 11:21:52;;;;;;;2.55;1.80;;;;;;;-145.79;75.37;79270.56;5236073;28;20132;-81
2023/03/27 11:24:32;;;;;;;3.58;1.73;;;;;;;-145.79;78.82;79232.38;5240043;28;20036;-75
2023/03/27 11:27:13;;;;;;;5.28;1.80;;;;;;;-145.79;79.61;79206.94;5242392;28;20425;-75
2023/03/27 11:29:56;;;;;;;4.38;1.67;;;;;;;-145.79;80.34;79179.38;5242108;28;20037;-75
2023/03/27 11:32:58;;;;;;;4.82;1.90;;;;;;;-145.79;80.57;79153.91;5243108;28;20127;-74
2023/03/27 11:35:37;;;;;;;3.47;1.70;;;;;;;-145.79;78.83;79158.16;5256865;28;20028;-75
2023/03/27 11:38:19;;;;;;;4.75;2.00;;;;;;;-145.79;77.52;79141.19;5258150;28;20123;-75
2023/03/27 11:40:50;;;;;;;5.40;1.88;;;;;;;-145.79;74.17;79126.34;5253643;28;20024;-75
2023/03/27 11:43:22;;;;;;;4.10;1.77;;;;;;;-145.79;74.48;79109.38;5263412;28;20021;-74
2023/03/27 11:46:26;;;;;;;5.18;2.42;;;;;;;-145.79;77.01;79050.00;5225678;28;20065;-74
2023/03/27 11:49:09;;;;;;;4.10;1.75;;;;;;;-145.79;74.20;79047.91;5260918;28;20021;-74
2023/03/27 11:51:56;;;;;;;3.72;1.70;;;;;;;-145.79;71.19;79039.41;5263308;28;20109;-74
2023/03/27 11:54:27;;;;;;;10.10;2.53;;;;;;;-145.79;73.65;79007.59;5263402;28;20067;-74
2023/03/27 11:57:02;;;;;;;7.10;2.78;;;;;;;-145.79;70.84;79013.97;5249073;28;20045;-73
2023/03/27 11:59:52;;;;;;;3.50;1.77;;;;;;;-145.79;70.46;78986.41;5221654;28;20553;-74
2023/03/27 12:02:45;;;;;;;4.82;1.60;;;;;;;-145.79;68.09;78975.78;5233208;28;20025;-73
2023/03/27 12:05:32;;;;;;;4.20;1.67;;;;;;;-145.79;68.38;78933.38;5260549;28;20595;-74
2023/03/27 12:08:26;;;;;;;4.60;1.95;;;;;;;-145.79;64.92;78950.34;5262627;28;20033;-74
2023/03/27 12:11:02;;;;;;;3.28;1.40;;;;;;;-145.79;61.72;78946.09;5261878;28;20025;-75
2023/03/27 12:13:53;;;;;;;1.65;0.95;;;;;;;-145.79;55.08;78973.69;5256817;28;20036;-75
2023/03/27 12:16:37;;;;;;;1.90;1.10;;;;;;;-145.79;56.25;78973.69;5261883;28;20033;-78
2023/03/27 12:19:20;;;;;;;7.45;4.57;;;;;;;-145.79;56.15;78933.38;5262855;28;20061;-75
2023/03/27 12:22:16;;;;;;;4.78;1.40;;;;;;;-145.79;55.18;78916.41;5262642;28;20037;-76
2023/03/27 12:25:31;;;;;;;4.57;1.50;;;;;;;-145.79;57.14;78895.22;5262032;28;20025;-76
2023/03/27 12:28:31;;;;;;;3.92;1.33;;;;;;;-145.79;56.54;78912.19;5262963;28;20036;-76
2023/03/27 12:31:10;;;;;;;4.80;1.50;;;;;;;-145.79;58.75;79030.94;5253533;28;20017;-77
2023/03/27 12:34:05;;;;;;;1.83;1.30;;;;;;;-145.79;60.42;79192.09;5258085;28;20082;-75
2023/03/27 12:36:41;;;;;;;1.75;1.40;;;;;;;-145.79;59.95;79223.91;5262447;28;20392;-77
2023/03/27 12:39:24;;;;;;;3.15;1.50;;;;;;;-145.79;59.92;79215.41;5261907;28;20065;-80
2023/03/27 12:41:56;;;;;;;4.18;2.00;;;;;;;-145.79;56.54;79234.50;5263065;28;20334;-80
2023/03/27 12:44:29;;;;;;;11.07;4.55;;;;;;;-145.79;56.71;79215.41;5262918;28;20029;-81
2023/03/27 12:47:14;;;;;;;2.95;1.73;;;;;;;-145.79;56.23;79228.13;5266803;28;20106;-81
2023/03/27 12:49:56;;;;;;;2.58;1.33;;;;;;;-145.79;56.32;79181.50;5246325;28;20113;-79
2023/03/27 12:52:29;;;;;;;1.80;1.00;;;;;;;-145.79;56.71;79162.41;5241051;28;20050;-79
2023/03/27 12:55:16;;;;;;;3.75;1.30;;;;;;;-145.79;58.25;79105.16;5243947;28;20468;-80
2023/03/27 12:57:47;;;;;;;4.00;2.17;;;;;;;-145.79;57.66;79064.84;5258172;28;20025;-81
2023/03/27 13:00:22;;;;;;;4.80;1.90;;;;;;;-145.79;57.03;79016.09;5270335;28;20514;-82
2023/03/27 13:03:32;;;;;;;6.22;1.90;;;;;;;-145.79;54.57;78992.75;5236788;28;20404;-81
2023/03/27 13:06:13;;;;;;;5.93;1.77;;;;;;;-145.79;54.54;78969.44;5190330;28;20054;-82
2023/03/27 13:08:58;;;;;;;6.05;3.75;;;;;;;-145.79;54.59;78935.50;5232621;28;20053;-81
2023/03/27 13:12:24;;;;;;;5.57;2.03;;;;;;;-145.79;54.27;78937.63;5246280;28;20087;-83
2023/03/27 13:15:18;;;;;;;3.78;1.50;;;;;;;-145.79;52.90;78954.59;5186662;28;20047;-83
2023/03/27 13:18:15;;;;;;;5.50;2.25;;;;;;;-145.79;53.50;78950.34;5220090;28;20041;-81
2023/03/27 13:21:04;;;;;;;5.03;2.17;;;;;;;-145.79;51.74;78973.69;5220495;28;20385;-82
2023/03/27 13:24:05;;;;;;;2.72;1.27;;;;;;;-145.79;50.72;78997.00;5221602;28;20026;-81
2023/03/27 13:26:55;;;;;;;2.97;1.40;;;;;;;-145.79;49.99;79022.44;5224469;28;20088;-82
2023/03/27 13:29:33;;;;;;;3.58;1.40;;;;;;;-145.79;48.54;79005.47;5260971;28;20067;-81
2023/03/27 13:32:30;;;;;;;4.60;1.60;;;;;;;-145.79;48.35;78952.47;5226320;28;20029;-81
2023/03/27 13:35:30;;;;;;;5.68;1.55;;;;;;;-145.79;48.63;78903.69;5241055;28;20045;-79
2023/03/27 13:38:02;;;;;;;6.68;3.58;;;;;;;-145.79;47.79;78933.38;5234392;28;20029;-81
2023/03/27 13:40:37;;;;;;;3.58;1.83;;;;;;;-145.79;48.59;78944.00;5226824;28;20022;-82
2023/03/27 13:43:32;;;;;;;3.88;1.83;;;;;;;-145.79;49.07;78954.59;5241493;28;20120;-81
2023/03/27 13:46:06;;;;;;;8.10;1.90;;;;;;;-145.79;48.93;78975.78;5241524;28;20117;-82
2023/03/27 13:49:16;;;;;;;4.53;1.50;;;;;;;-145.79;48.46;79022.44;5242984;28;20029;-82
2023/03/27 13:52:09;;;;;;;6.97;1.75;;;;;;;-145.79;49.29;79039.41;5157659;29;20027;-77
2023/03/27 13:55:15;;;;;;;5.88;2.10;;;;;;;-145.79;49.92;79043.66;5237429;28;20037;-81
2023/03/27 13:58:08;;;;;;;8.55;1.90;;;;;;;-145.79;49.57;79001.25;5243114;28;20079;-81
2023/03/27 14:01:01;;;;;;;3.58;1.52;;;;;;;-145.79;48.55;78973.69;5245355;28;20091;-82
2023/03/27 14:04:05;;;;;;;4.70;1.48;;;;;;;-145.79;48.46;78994.88;5223459;28;20509;-81
2023/03/27 14:06:53;;;;;;;5.43;2.00;;;;;;;-145.79;49.19;79009.72;5245587;28;20033;-83
2023/03/27 14:09:37;;;;;;;6.20;1.90;;;;;;;-145.79;49.86;78988.53;5235964;28;20080;-85
2023/03/27 14:12:46;;;;;;;7.22;1.60;;;;;;;-145.79;49.33;78977.91;5244833;28;20061;-87
2023/03/27 14:15:30;;;;;;;2.60;1.40;;;;;;;-145.79;47.53;78982.16;5250571;28;20045;-85
2023/03/27 14:18:22;;;;;;;5.00;1.50;;;;;;;-145.79;46.09;78946.09;5249899;28;20033;-86
2023/03/27 14:21:02;;;;;;;2.70;1.27;;;;;;;-145.79;44.99;78931.25;5246065;28;20093;-87
2023/03/27 14:23:46;;;;;;;6.55;1.77;;;;;;;-145.79;44.23;78933.38;5247552;28;20028;-87
2023/03/27 14:26:23;;;;;;;3.70;1.30;;;;;;;-145.79;43.39;78967.31;5248015;28;20033;-84
2023/03/27 14:29:00;;;;;;;3.95;1.45;;;;;;;-145.79;43.63;79003.34;5246353;28;20029;-83
2023/03/27 14:31:35;;;;;;;3.10;1.40;;;;;;;-145.79;44.20;78967.31;5225189;28;20026;-82
2023/03/27 14:34:15;;;;;;;5.38;2.05;;;;;;;-145.79;41.42;78944.00;5239004;28;20021;-84
2023/03/27 14:36:51;;;;;;;3.42;1.73;;;;;;;-145.79;41.70;78914.31;5245711;28;20029;-82
2023/03/27 14:39:26;;;;;;;2.60;1.20;;;;;;;-145.79;41.75;78874.00;5251645;28;20094;-82
2023/03/27 14:42:00;;;;;;;4.00;1.45;;;;;;;-145.79;41.94;78852.81;5245961;28;20098;-81
2023/03/27 14:44:32;;;;;;;3.03;1.55;;;;;;;-145.79;43.32;78818.88;5246956;28;20037;-80
2023/03/27 14:47:11;;;;;;;6.28;2.13;;;;;;;-145.79;42.64;78784.97;5244250;28;20481;-78
2023/03/27 14:50:05;;;;;;;3.88;1.73;;;;;;;-145.79;42.29;78831.59;5235091;28;20030;-77
2023/03/27 14:52:36;;;;;;;9.30;6.28;;;;;;;-145.79;41.15;78816.75;5231542;28;20033;-79
2023/03/27 14:55:17;;;;;;;2.83;1.65;;;;;;;-145.79;41.52;78869.78;5240149;28;20049;-83
2023/03/27 14:57:50;;;;;;;9.85;2.63;;;;;;;-145.79;42.08;78929.16;5242513;28;20069;-81
2023/03/27 15:00:23;;;;;;;8.63;1.90;;;;;;;-145.79;44.81;78963.06;5252475;28;20056;-82
2023/03/27 15:03:04;;;;;;;6.18;1.83;;;;;;;-145.79;48.85;78971.56;5253112;28;20029;-81
2023/03/27 15:06:04;;;;;;;5.25;1.80;;;;;;;-145.79;51.63;78997.00;5253904;28;20033;-84
2023/03/27 15:08:45;;;;;;;15.32;9.02;;;;;;;-145.79;52.45;78997.00;5245260;28;20049;-84
2023/03/27 15:11:22;;;;;;;5.88;2.45;;;;;;;-145.79;52.70;78969.44;5244035;28;20026;-84
2023/03/27 15:13:56;;;;;;;5.32;1.80;;;;;;;-145.79;52.15;78994.88;5231322;28;20034;-78
2023/03/27 15:16:31;;;;;;;9.43;2.17;;;;;;;-145.79;52.65;78977.91;5224023;28;20032;-79
2023/03/27 15:19:11;;;;;;;5.85;2.50;;;;;;;-145.79;51.88;78965.19;5224573;28;20022;-81
2023/03/27 15:21:54;;;;;;;3.60;2.00;;;;;;;-145.79;51.05;78948.22;5232623;28;20028;-83
2023/03/27 15:24:44;;;;;;;5.30;2.30;;;;;;;-145.79;49.23;78937.63;5247156;28;20473;-84
2023/03/27 15:27:20;;;;;;;5.65;1.90;;;;;;;-145.79;48.86;78924.91;5245402;28;20500;-84
2023/03/27 15:30:36;;;;;;;5.28;2.50;;;;;;;-145.79;49.07;78918.53;5245707;28;20124;-83
2023/03/27 15:33:19;;;;;;;6.70;2.60;;;;;;;-145.79;49.57;78958.84;5240779;28;20072;-83
2023/03/27 15:35:53;;;;;;;7.30;3.38;;;;;;;-145.79;49.44;78969.44;5245370;28;20416;-83
2023/03/27 15:38:31;;;;;;;9.95;5.63;;;;;;;-145.79;48.11;79009.72;5240717;28;20051;-83
2023/03/27 15:41:15;;;;;;;5.40;2.45;;;;;;;-145.79;47.65;78988.53;5233409;28;20034;-82
2023/03/27 15:43:46;;;;;;;4.47;2.40;;;;;;;-145.79;46.57;78999.13;5230428;28;20021;-81
2023/03/27 15:46:24;;;;;;;6.13;2.60;;;;;;;-145.79;46.08;78992.75;5230783;28;20374;-83
2023/03/27 15:48:55;;;;;;;10.18;2.60;;;;;;;-145.79;45.86;78975.78;5224964;28;20038;-82
2023/03/27 15:51:29;;;;;;;3.85;1.90;;;;;;;-145.79;46.03;78958.84;5242677;28;20103;-80
2023/03/27 15:54:33;;;;;;;4.22;1.80;;;;;;;-145.79;47.57;78944.00;5245768;28;20021;-83
2023/03/27 15:57:08;;;;;;;6.00;1.85;;;;;;;-145.79;45.39;78988.53;5224479;28;20074;-75
2023/03/27 15:59:43;;;;;;;4.53;1.88;;;;;;;-145.79;46.92;78992.75;5223879;28;20555;-82
2023/03/27 16:02:17;;;;;;;3.78;1.73;;;;;;;-145.79;46.22;78977.91;5221532;28;20029;-75
2023/03/27 16:04:54;;;;;;;4.55;1.98;;;;;;;-145.79;46.31;79013.97;5221000;28;20049;-73
2023/03/27 16:07:37;;;;;;;6.57;2.10;;;;;;;-145.79;46.86;79022.44;5221278;28;20037;-73
2023/03/27 16:10:11;;;;;;;8.25;2.60;;;;;;;-145.79;47.04;79056.38;5220807;28;20076;-74
2023/03/27 16:12:51;;;;;;;7.22;2.17;;;;;;;-145.79;47.80;79047.91;5222167;28;20069;-73
2023/03/27 16:15:29;;;;;;;5.60;2.03;;;;;;;-145.79;48.85;79022.44;5221281;28;20105;-74
2023/03/27 16:18:23;;;;;;;6.20;1.90;;;;;;;-145.79;48.81;78984.28;5225910;28;20025;-74
2023/03/27 16:21:05;;;;;;;8.32;2.50;;;;;;;-145.79;48.22;78986.41;5241698;28;20045;-75
2023/03/27 16:23:37;;;;;;;3.97;1.65;;;;;;;-145.79;47.75;78984.28;5230325;28;20018;-75
2023/03/27 16:26:14;;;;;;;9.35;2.72;;;;;;;-145.79;46.35;78992.75;5221076;28;20029;-75
2023/03/27 16:28:46;;;;;;;6.85;2.22;;;;;;;-145.79;46.11;78973.69;5251238;28;20044;-71
2023/03/27 16:31:18;;;;;;;5.22;2.17;;;;;;;-145.79;44.87;78967.31;5220495;28;20018;-71
2023/03/27 16:33:50;;;;;;;8.00;2.28;;;;;;;-145.79;44.67;78952.47;5221479;28;20076;-73
2023/03/27 16:36:29;;;;;;;4.80;1.80;;;;;;;-145.79;43.54;78958.84;5221255;28;20029;-72
2023/03/27 16:39:00;;;;;;;5.20;1.77;;;;;;;-145.79;43.44;78980.03;5221389;28;20092;-71
2023/03/27 16:41:31;;;;;;;6.15;2.08;;;;;;;-145.79;44.38;78967.31;5221333;28;20049;-71
2023/03/27 16:44:03;;;;;;;12.23;7.38;;;;;;;-145.79;43.86;78990.63;5220645;28;20033;-73
2023/03/27 16:46:34;;;;;;;9.13;1.55;;;;;;;-145.79;43.38;79011.84;5232975;28;20024;-72
2023/03/27 16:49:10;;;;;;;9.32;1.98;;;;;;;-145.79;43.89;79011.84;5237950;28;20044;-73
2023/03/27 16:51:47;;;;;;;4.95;1.50;;;;;;;-145.79;44.31;79030.94;5229835;28;20524;-73
2023/03/27 16:54:19;;;;;;;5.78;1.70;;;;;;;-145.79;44.23;79058.50;5241630;28;20029;-72
